MSC Mandraki — SZUH — position and weather

sailwx.info

Track history (hours):
 
Tides and Currents Weather Stations Pressure Air Temp Water Temp Dewpoint Dewpoint Depression Visibility Wind Speed Wind Dir Waves Ship Positions

MSC Mandraki

Last reported at 2016-Dec-05 01:32 UTC. Time now 2016-Dec-05 02:30 UTC.
Position N 51°25' E 002°40'.

Length 294 m; draft 10.4 m.

Type: Ship. MMSI: 240265000.

Date/timePositionNaut miles runAvg speedWind from/ knotsBaromVisibWave heightAir tempDewpointWater temp
2016-Dec-05 01:32N 51°25' E 002°40'0 0.0
2016-Dec-05 00:33N 51°25' E 002°40'5 5.0
2016-Dec-04 23:33N 51°22' E 002°34'1716.5
2016-Dec-04 22:33N 51°15' E 002°11'1717.0
2016-Dec-04 21:34N 51°06' E 001°47'1716.6
2016-Dec-04 20:33N 50°54' E 001°29'5016.8
2016-Dec-04 17:33N 50°23' E 000°26'1817.4
2016-Dec-04 16:31N 50°18' W 000°01'1717.6
2016-Dec-04 15:32N 50°04' W 000°17'1919.9
2016-Dec-04 14:33N 49°45' W 000°10'1717.1
2016-Dec-04 13:34N 49°30' E 000°02'5 4.7
2016-Dec-04 12:33N 49°28' E 000°08'0 0.0
2016-Dec-04 11:33N 49°28' E 000°08'0 0.0
2016-Dec-04 10:33N 49°28' E 000°08'0 0.0
2016-Dec-04 09:33N 49°28' E 000°08'0 0.0
2016-Dec-04 08:33N 49°28' E 000°08'0 0.0
2016-Dec-04 07:33N 49°28' E 000°08'0 0.0
2016-Dec-04 06:33N 49°28' E 000°08'0 0.0
2016-Dec-04 05:33N 49°28' E 000°08'0 0.0
2016-Dec-04 04:33N 49°28' E 000°08'0 0.0
2016-Dec-04 03:33N 49°28' E 000°08'0 0.0
2016-Dec-04 02:33N 49°28' E 000°08'0 0.0
2016-Dec-04 01:33N 49°28' E 000°08'0 0.0
2016-Dec-04 00:33N 49°28' E 000°08'0 0.0
2016-Dec-03 23:33N 49°28' E 000°08'0 0.0
2016-Dec-03 22:33N 49°28' E 000°08'0 0.0
2016-Dec-03 21:33N 49°28' E 000°08'0 0.0
2016-Dec-03 20:33N 49°28' E 000°08'0 0.0
2016-Dec-03 19:33N 49°28' E 000°08'0 0.0
2016-Dec-03 18:33N 49°28' E 000°08'0 0.0
2016-Dec-03 17:33N 49°28' E 000°08'0 0.0
2016-Dec-03 16:33N 49°28' E 000°08'0 0.0
2016-Dec-03 15:33N 49°28' E 000°08'0 0.0
2016-Dec-03 14:33N 49°28' E 000°08'0 0.0
2016-Dec-03 13:33N 49°28' E 000°08'0 0.0
2016-Dec-03 12:33N 49°28' E 000°08'0 0.0
2016-Dec-03 11:33N 49°28' E 000°08'0 0.0
2016-Dec-03 10:33N 49°28' E 000°08'0 0.0
2016-Dec-03 09:33N 49°28' E 000°08'0 0.0
2016-Dec-03 08:33N 49°28' E 000°08'0 0.0
2016-Dec-03 07:33N 49°28' E 000°08'0 0.0
2016-Dec-03 06:33N 49°28' E 000°08'0 0.0
2016-Dec-03 05:33N 49°28' E 000°08'0 0.0
2016-Dec-03 04:33N 49°28' E 000°08'1 1.4
2016-Dec-03 03:33N 49°28' E 000°06'1211.7
2016-Dec-03 02:33N 49°32' W 000°11'10 9.6
2016-Dec-03 01:33N 49°39' W 000°21'1717.0
2016-Dec-03 00:33N 49°56' W 000°21'1918.8
2016-Dec-02 23:33N 50°13' W 000°11'1817.6
2016-Dec-02 22:31N 50°29' E 000°04'5518.7
2016-Dec-02 19:33N 50°59' E 001°17'2120.9
2016-Dec-02 18:33N 51°12' E 001°43'1918.8
2016-Dec-02 17:33N 51°28' E 001°59'1818.2
2016-Dec-02 16:33N 51°42' E 002°18'9918.5
2016-Dec-02 11:13N 52°59' E 004°00'1319.7
2016-Dec-02 10:33N 53°07' E 004°17'25718.0
2016-Dec-01 20:19N 57°06' E 007°01'1316.5
2016-Dec-01 19:32N 57°12' E 007°22'1616.5
2016-Dec-01 18:32N 57°19' E 007°49'5217.0
2016-Dec-01 15:28N 57°42' E 009°16'1617.7
2016-Dec-01 14:33N 57°50' E 009°42'1717.4
2016-Dec-01 13:33N 57°53' E 010°14'1615.7
2016-Dec-01 12:33N 57°50' E 010°43'1818.0
2016-Dec-01 11:33N 57°38' E 011°07'1817.8
2016-Dec-01 10:33N 57°24' E 011°29'1818.4
2016-Dec-01 09:33N 57°07' E 011°40'4914.7
2016-Dec-01 06:12N 56°21' E 011°05'1116.5
2016-Dec-01 05:33N 56°11' E 011°06'1817.0
2016-Dec-01 04:31N 55°54' E 010°56'3115.8
2016-Dec-01 02:33N 55°23' E 011°02'1515.1
2016-Dec-01 01:34N 55°08' E 010°60'1615.8
2016-Dec-01 00:34N 54°53' E 010°51'1313.0
2016-Nov-30 23:34N 54°40' E 010°47'1515.1
2016-Nov-30 22:34N 54°36' E 011°12'1817.5
2016-Nov-30 21:34N 54°28' E 011°39'1817.6
2016-Nov-30 20:34N 54°26' E 012°09'5617.6
2016-Nov-30 17:22N 54°57' E 013°30'1518.8
2016-Nov-30 16:33N 55°02' E 013°56'1818.6
2016-Nov-30 15:33N 55°14' E 014°20'1918.9
2016-Nov-30 14:33N 55°28' E 014°42'1818.5
2016-Nov-30 13:33N 55°37' E 015°11'1818.2
2016-Nov-30 12:33N 55°42' E 015°42'131 3.0
2016-Nov-28 16:32N 55°02' E 019°22'1717.3
2016-Nov-28 15:33N 54°48' E 019°06'1716.8
2016-Nov-28 14:33N 54°33' E 018°51'1010.4
2016-Nov-28 13:33N 54°32' E 018°33'1 1.5
2016-Nov-28 12:33N 54°33' E 018°31'0 0.0
2016-Nov-28 11:33N 54°33' E 018°31'0 0.0
2016-Nov-28 10:33N 54°33' E 018°31'0 0.0
2016-Nov-28 09:33N 54°33' E 018°31'0 0.0
2016-Nov-28 08:33N 54°33' E 018°31'0 0.0
2016-Nov-28 07:33N 54°33' E 018°31'0 0.0
2016-Nov-28 06:33N 54°33' E 018°31'0 0.0
2016-Nov-28 05:33N 54°33' E 018°31'0 0.0
2016-Nov-28 04:33N 54°33' E 018°31'0 0.0
2016-Nov-28 03:33N 54°33' E 018°31'0 0.0
2016-Nov-28 02:33N 54°33' E 018°31'0 0.0
2016-Nov-28 01:30N 54°33' E 018°31'0 0.0
2016-Nov-28 00:33N 54°33' E 018°31'0 0.0
2016-Nov-27 23:33N 54°33' E 018°31'0 0.0
2016-Nov-27 22:33N 54°33' E 018°31'0 0.0
2016-Nov-27 21:33N 54°33' E 018°31'0 0.0
2016-Nov-27 20:33N 54°33' E 018°31'0 0.0
2016-Nov-27 19:33N 54°33' E 018°31'0 0.0
2016-Nov-27 18:33N 54°33' E 018°31'0 0.0
2016-Nov-27 17:33N 54°33' E 018°31'0 0.0
2016-Nov-27 16:31N 54°33' E 018°31'0 0.0
2016-Nov-27 15:31N 54°33' E 018°31'0 0.0
2016-Nov-27 14:31N 54°33' E 018°31'0 0.0
2016-Nov-27 13:31N 54°33' E 018°31'0 0.0
2016-Nov-27 12:31N 54°33' E 018°31'0 0.0
2016-Nov-27 11:31N 54°33' E 018°31'0 0.0
2016-Nov-27 10:31N 54°33' E 018°31'0 0.0
2016-Nov-27 09:31N 54°33' E 018°31'0 0.0
2016-Nov-27 08:31N 54°33' E 018°31'0 0.0
2016-Nov-27 07:31N 54°33' E 018°31'0 0.0
2016-Nov-27 06:31N 54°33' E 018°31'0 0.0
2016-Nov-27 05:31N 54°33' E 018°31'0 0.0
2016-Nov-27 04:31N 54°33' E 018°31'0 0.0
2016-Nov-27 03:31N 54°33' E 018°31'0 0.0
2016-Nov-27 02:31N 54°33' E 018°31'0 0.0
2016-Nov-27 01:31N 54°33' E 018°31'0 0.0
2016-Nov-27 00:31N 54°33' E 018°31'0 0.0
2016-Nov-26 23:31N 54°33' E 018°31'0 0.0
2016-Nov-26 22:31N 54°33' E 018°31'0 0.0
2016-Nov-26 21:31N 54°33' E 018°31'0 0.0
2016-Nov-26 20:31N 54°33' E 018°31'0 0.0
2016-Nov-26 19:31N 54°33' E 018°31'0 0.0
2016-Nov-26 18:31N 54°33' E 018°31'0 0.4
2016-Nov-26 17:33N 54°32' E 018°31'7 6.5
2016-Nov-26 16:34N 54°32' E 018°43'1514.9
2016-Nov-26 15:34N 54°44' E 018°58'1818.4
2016-Nov-26 14:33N 54°59' E 018°38'1918.8
2016-Nov-26 13:33N 55°07' E 018°08'8519.0
2016-Nov-26 09:06N 55°25' E 015°44'1019.1
2016-Nov-26 08:33N 55°25' E 015°25'1918.8
2016-Nov-26 07:34N 55°25' E 014°52'1717.4
2016-Nov-26 06:33N 55°16' E 014°27'1818.4
2016-Nov-26 05:34N 55°01' E 014°08'1918.9
2016-Nov-26 04:33N 54°53' E 013°37'1918.9
2016-Nov-26 03:34N 54°49' E 013°06'1818.2
2016-Nov-26 02:34N 54°43' E 012°36'1717.4
2016-Nov-26 01:34N 54°30' E 012°16'1616.1
2016-Nov-26 00:34N 54°24' E 011°50'1919.0
2016-Nov-25 23:34N 54°32' E 011°20'1918.6
2016-Nov-25 22:34N 54°39' E 010°50'1414.0
2016-Nov-25 21:33N 54°53' E 010°51'1716.6
2016-Nov-25 20:33N 55°09' E 010°59'1915.5
2016-Nov-25 19:21N 55°27' E 010°55'4716.4
2016-Nov-25 16:30N 56°14' E 011°05'1413.7
2016-Nov-25 15:31N 56°27' E 011°11'2618.2
2016-Nov-25 14:04N 56°43' E 011°48'918.1
2016-Nov-25 13:33N 56°53' E 011°47'2019.7
2016-Nov-25 12:34N 57°11' E 011°35'2019.6
2016-Nov-25 11:33N 57°29' E 011°21'2019.9
2016-Nov-25 10:33N 57°43' E 010°53'1818.1
2016-Nov-25 09:33N 57°53' E 010°26'2419.7
2016-Nov-25 08:19N 57°49' E 009°41'  
Track history (hours):
 
Tides and Currents Weather Stations Pressure Air Temp Water Temp Dewpoint Dewpoint Depression Visibility Wind Speed Wind Dir Waves Ship Positions

MSC Mandraki

Last reported at 2016-Dec-05 01:32 UTC. Time now 2016-Dec-05 02:30 UTC.
Position N 51°25' E 002°40'.

Length 294 m; draft 10.4 m.

Type: Ship. MMSI: 240265000.

Date/timePositionNaut miles runAvg speedWind from/ knotsBaromVisibWave heightAir tempDewpointWater temp
2016-Dec-05 01:32N 51°25' E 002°40'0 0.0
2016-Dec-05 00:33N 51°25' E 002°40'5 5.0
2016-Dec-04 23:33N 51°22' E 002°34'1716.5
2016-Dec-04 22:33N 51°15' E 002°11'1717.0
2016-Dec-04 21:34N 51°06' E 001°47'1716.6
2016-Dec-04 20:33N 50°54' E 001°29'5016.8
2016-Dec-04 17:33N 50°23' E 000°26'1817.4
2016-Dec-04 16:31N 50°18' W 000°01'1717.6
2016-Dec-04 15:32N 50°04' W 000°17'1919.9
2016-Dec-04 14:33N 49°45' W 000°10'1717.1
2016-Dec-04 13:34N 49°30' E 000°02'5 4.7
2016-Dec-04 12:33N 49°28' E 000°08'0 0.0
2016-Dec-04 11:33N 49°28' E 000°08'0 0.0
2016-Dec-04 10:33N 49°28' E 000°08'0 0.0
2016-Dec-04 09:33N 49°28' E 000°08'0 0.0
2016-Dec-04 08:33N 49°28' E 000°08'0 0.0
2016-Dec-04 07:33N 49°28' E 000°08'0 0.0
2016-Dec-04 06:33N 49°28' E 000°08'0 0.0
2016-Dec-04 05:33N 49°28' E 000°08'0 0.0
2016-Dec-04 04:33N 49°28' E 000°08'0 0.0
2016-Dec-04 03:33N 49°28' E 000°08'0 0.0
2016-Dec-04 02:33N 49°28' E 000°08'0 0.0
2016-Dec-04 01:33N 49°28' E 000°08'0 0.0
2016-Dec-04 00:33N 49°28' E 000°08'0 0.0
2016-Dec-03 23:33N 49°28' E 000°08'0 0.0
2016-Dec-03 22:33N 49°28' E 000°08'0 0.0
2016-Dec-03 21:33N 49°28' E 000°08'0 0.0
2016-Dec-03 20:33N 49°28' E 000°08'0 0.0
2016-Dec-03 19:33N 49°28' E 000°08'0 0.0
2016-Dec-03 18:33N 49°28' E 000°08'0 0.0
2016-Dec-03 17:33N 49°28' E 000°08'0 0.0
2016-Dec-03 16:33N 49°28' E 000°08'0 0.0
2016-Dec-03 15:33N 49°28' E 000°08'0 0.0
2016-Dec-03 14:33N 49°28' E 000°08'0 0.0
2016-Dec-03 13:33N 49°28' E 000°08'0 0.0
2016-Dec-03 12:33N 49°28' E 000°08'0 0.0
2016-Dec-03 11:33N 49°28' E 000°08'0 0.0
2016-Dec-03 10:33N 49°28' E 000°08'0 0.0
2016-Dec-03 09:33N 49°28' E 000°08'0 0.0
2016-Dec-03 08:33N 49°28' E 000°08'0 0.0
2016-Dec-03 07:33N 49°28' E 000°08'0 0.0
2016-Dec-03 06:33N 49°28' E 000°08'0 0.0
2016-Dec-03 05:33N 49°28' E 000°08'0 0.0
2016-Dec-03 04:33N 49°28' E 000°08'1 1.4
2016-Dec-03 03:33N 49°28' E 000°06'1211.7
2016-Dec-03 02:33N 49°32' W 000°11'10 9.6
2016-Dec-03 01:33N 49°39' W 000°21'1717.0
2016-Dec-03 00:33N 49°56' W 000°21'1918.8
2016-Dec-02 23:33N 50°13' W 000°11'1817.6
2016-Dec-02 22:31N 50°29' E 000°04'5518.7
2016-Dec-02 19:33N 50°59' E 001°17'2120.9
2016-Dec-02 18:33N 51°12' E 001°43'1918.8
2016-Dec-02 17:33N 51°28' E 001°59'1818.2
2016-Dec-02 16:33N 51°42' E 002°18'9918.5
2016-Dec-02 11:13N 52°59' E 004°00'1319.7
2016-Dec-02 10:33N 53°07' E 004°17'25718.0
2016-Dec-01 20:19N 57°06' E 007°01'1316.5
2016-Dec-01 19:32N 57°12' E 007°22'1616.5
2016-Dec-01 18:32N 57°19' E 007°49'5217.0
2016-Dec-01 15:28N 57°42' E 009°16'1617.7
2016-Dec-01 14:33N 57°50' E 009°42'1717.4
2016-Dec-01 13:33N 57°53' E 010°14'1615.7
2016-Dec-01 12:33N 57°50' E 010°43'1818.0
2016-Dec-01 11:33N 57°38' E 011°07'1817.8
2016-Dec-01 10:33N 57°24' E 011°29'1818.4
2016-Dec-01 09:33N 57°07' E 011°40'4914.7
2016-Dec-01 06:12N 56°21' E 011°05'1116.5
2016-Dec-01 05:33N 56°11' E 011°06'1817.0
2016-Dec-01 04:31N 55°54' E 010°56'3115.8
2016-Dec-01 02:33N 55°23' E 011°02'1515.1
2016-Dec-01 01:34N 55°08' E 010°60'1615.8
2016-Dec-01 00:34N 54°53' E 010°51'1313.0
2016-Nov-30 23:34N 54°40' E 010°47'1515.1
2016-Nov-30 22:34N 54°36' E 011°12'1817.5
2016-Nov-30 21:34N 54°28' E 011°39'1817.6
2016-Nov-30 20:34N 54°26' E 012°09'5617.6
2016-Nov-30 17:22N 54°57' E 013°30'1518.8
2016-Nov-30 16:33N 55°02' E 013°56'1818.6
2016-Nov-30 15:33N 55°14' E 014°20'1918.9
2016-Nov-30 14:33N 55°28' E 014°42'1818.5
2016-Nov-30 13:33N 55°37' E 015°11'1818.2
2016-Nov-30 12:33N 55°42' E 015°42'131 3.0
2016-Nov-28 16:32N 55°02' E 019°22'1717.3
2016-Nov-28 15:33N 54°48' E 019°06'1716.8
2016-Nov-28 14:33N 54°33' E 018°51'1010.4
2016-Nov-28 13:33N 54°32' E 018°33'1 1.5
2016-Nov-28 12:33N 54°33' E 018°31'0 0.0
2016-Nov-28 11:33N 54°33' E 018°31'0 0.0
2016-Nov-28 10:33N 54°33' E 018°31'0 0.0
2016-Nov-28 09:33N 54°33' E 018°31'0 0.0
2016-Nov-28 08:33N 54°33' E 018°31'0 0.0
2016-Nov-28 07:33N 54°33' E 018°31'0 0.0
2016-Nov-28 06:33N 54°33' E 018°31'0 0.0
2016-Nov-28 05:33N 54°33' E 018°31'0 0.0
2016-Nov-28 04:33N 54°33' E 018°31'0 0.0
2016-Nov-28 03:33N 54°33' E 018°31'0 0.0
2016-Nov-28 02:33N 54°33' E 018°31'0 0.0
2016-Nov-28 01:30N 54°33' E 018°31'0 0.0
2016-Nov-28 00:33N 54°33' E 018°31'0 0.0
2016-Nov-27 23:33N 54°33' E 018°31'0 0.0
2016-Nov-27 22:33N 54°33' E 018°31'0 0.0
2016-Nov-27 21:33N 54°33' E 018°31'0 0.0
2016-Nov-27 20:33N 54°33' E 018°31'0 0.0
2016-Nov-27 19:33N 54°33' E 018°31'0 0.0
2016-Nov-27 18:33N 54°33' E 018°31'0 0.0
2016-Nov-27 17:33N 54°33' E 018°31'0 0.0
2016-Nov-27 16:31N 54°33' E 018°31'0 0.0
2016-Nov-27 15:31N 54°33' E 018°31'0 0.0
2016-Nov-27 14:31N 54°33' E 018°31'0 0.0
2016-Nov-27 13:31N 54°33' E 018°31'0 0.0
2016-Nov-27 12:31N 54°33' E 018°31'0 0.0
2016-Nov-27 11:31N 54°33' E 018°31'0 0.0
2016-Nov-27 10:31N 54°33' E 018°31'0 0.0
2016-Nov-27 09:31N 54°33' E 018°31'0 0.0
2016-Nov-27 08:31N 54°33' E 018°31'0 0.0
2016-Nov-27 07:31N 54°33' E 018°31'0 0.0
2016-Nov-27 06:31N 54°33' E 018°31'0 0.0
2016-Nov-27 05:31N 54°33' E 018°31'0 0.0
2016-Nov-27 04:31N 54°33' E 018°31'0 0.0
2016-Nov-27 03:31N 54°33' E 018°31'0 0.0
2016-Nov-27 02:31N 54°33' E 018°31'0 0.0
2016-Nov-27 01:31N 54°33' E 018°31'0 0.0
2016-Nov-27 00:31N 54°33' E 018°31'0 0.0
2016-Nov-26 23:31N 54°33' E 018°31'0 0.0
2016-Nov-26 22:31N 54°33' E 018°31'0 0.0
2016-Nov-26 21:31N 54°33' E 018°31'0 0.0
2016-Nov-26 20:31N 54°33' E 018°31'0 0.0
2016-Nov-26 19:31N 54°33' E 018°31'0 0.0
2016-Nov-26 18:31N 54°33' E 018°31'0 0.4
2016-Nov-26 17:33N 54°32' E 018°31'7 6.5
2016-Nov-26 16:34N 54°32' E 018°43'1514.9
2016-Nov-26 15:34N 54°44' E 018°58'1818.4
2016-Nov-26 14:33N 54°59' E 018°38'1918.8
2016-Nov-26 13:33N 55°07' E 018°08'8519.0
2016-Nov-26 09:06N 55°25' E 015°44'1019.1
2016-Nov-26 08:33N 55°25' E 015°25'1918.8
2016-Nov-26 07:34N 55°25' E 014°52'1717.4
2016-Nov-26 06:33N 55°16' E 014°27'1818.4
2016-Nov-26 05:34N 55°01' E 014°08'1918.9
2016-Nov-26 04:33N 54°53' E 013°37'1918.9
2016-Nov-26 03:34N 54°49' E 013°06'1818.2
2016-Nov-26 02:34N 54°43' E 012°36'1717.4
2016-Nov-26 01:34N 54°30' E 012°16'1616.1
2016-Nov-26 00:34N 54°24' E 011°50'1919.0
2016-Nov-25 23:34N 54°32' E 011°20'1918.6
2016-Nov-25 22:34N 54°39' E 010°50'1414.0
2016-Nov-25 21:33N 54°53' E 010°51'1716.6
2016-Nov-25 20:33N 55°09' E 010°59'1915.5
2016-Nov-25 19:21N 55°27' E 010°55'4716.4
2016-Nov-25 16:30N 56°14' E 011°05'1413.7
2016-Nov-25 15:31N 56°27' E 011°11'2618.2
2016-Nov-25 14:04N 56°43' E 011°48'918.1
2016-Nov-25 13:33N 56°53' E 011°47'2019.7
2016-Nov-25 12:34N 57°11' E 011°35'2019.6
2016-Nov-25 11:33N 57°29' E 011°21'2019.9
2016-Nov-25 10:33N 57°43' E 010°53'1818.1
2016-Nov-25 09:33N 57°53' E 010°26'2419.7
2016-Nov-25 08:19N 57°49' E 009°41'  

Dump ship's entire track history